Time;durP1;ratioP1;P1;durP2;ratioP2;P2;SDS_P1;SDS_P2;PMS_P1;PMS_P2;Temp;Humidity;BMP_temperature;BMP_pressure;BME280_temperature;BME280_humidity;BME280_pressure;Samples;Min_cycle;Max_cycle;Signal;HPM_P1;HPM_P2
2023/01/05 00:00:24;;;;;;;8.40;4.93;;;18.60;55.70;;;;;;5034057;28;20544;-54
2023/01/05 00:02:51;;;;;;;8.35;4.50;;;18.60;55.60;;;;;;5016306;28;20258;-53
2023/01/05 00:05:19;;;;;;;8.48;4.90;;;18.60;55.70;;;;;;5033986;28;20198;-54
2023/01/05 00:07:46;;;;;;;8.45;4.78;;;18.60;55.70;;;;;;5033954;28;20216;-54
2023/01/05 00:24:06;;;;;;;7.43;4.10;;;18.50;55.70;;;;;;5029065;28;20243;-54
2023/01/05 00:26:33;;;;;;;5.70;3.55;;;18.50;55.80;;;;;;5033677;28;20585;-54
2023/01/05 00:29:02;;;;;;;7.75;4.00;;;18.50;55.50;;;;;;5048861;28;20283;-54
2023/01/05 00:31:29;;;;;;;6.45;4.20;;;18.50;55.70;;;;;;5015719;28;20220;-54
2023/01/05 00:33:56;;;;;;;7.47;4.18;;;18.50;55.90;;;;;;5015801;28;20199;-54
2023/01/05 00:36:25;;;;;;;6.03;3.95;;;18.50;55.40;;;;;;5033389;28;20590;-54
2023/01/05 00:38:54;;;;;;;6.82;4.13;;;18.50;55.30;;;;;;5049077;28;20223;-54
2023/01/05 00:41:21;;;;;;;7.05;3.75;;;18.50;55.20;;;;;;5015681;28;20195;-54
2023/01/05 00:43:48;;;;;;;9.13;4.25;;;18.40;55.30;;;;;;5033227;28;20196;-54
2023/01/05 00:46:16;;;;;;;7.85;4.47;;;18.50;55.40;;;;;;5041791;23;20192;-52
2023/01/05 00:48:44;;;;;;;7.20;3.90;;;18.50;55.30;;;;;;5033132;28;20187;-52
2023/01/05 00:51:11;;;;;;;7.22;3.95;;;18.40;55.30;;;;;;5015312;28;20211;-52
2023/01/05 00:53:38;;;;;;;5.22;3.30;;;18.40;55.60;;;;;;5015340;28;20203;-52
2023/01/05 00:56:06;;;;;;;6.78;3.67;;;18.40;55.10;;;;;;5013332;28;20196;-52
2023/01/05 00:58:33;;;;;;;5.68;3.35;;;18.40;55.00;;;;;;4995623;28;20299;-52
2023/01/05 01:01:00;;;;;;;6.47;3.78;;;18.40;55.00;;;;;;5013505;28;20276;-52
2023/01/05 01:03:28;;;;;;;6.82;3.20;;;18.40;55.10;;;;;;4995745;28;20196;-53
2023/01/05 01:05:56;;;;;;;6.47;3.40;;;18.40;55.00;;;;;;5013119;28;20189;-52
2023/01/05 01:08:24;;;;;;;6.75;3.85;;;18.40;54.90;;;;;;5013472;28;20239;-52
2023/01/05 01:10:51;;;;;;;5.68;3.20;;;18.40;55.10;;;;;;4995439;28;20645;-52
2023/01/05 01:13:19;;;;;;;5.53;3.10;;;18.40;54.80;;;;;;4995558;28;20204;-52
2023/01/05 01:15:46;;;;;;;4.05;2.78;;;18.40;54.90;;;;;;4995478;28;20203;-52
2023/01/05 01:18:13;;;;;;;4.63;3.33;;;18.40;54.70;;;;;;4995434;28;20216;-52
2023/01/05 01:20:42;;;;;;;4.93;3.13;;;18.40;55.00;;;;;;4995432;28;20682;-52
2023/01/05 01:23:09;;;;;;;4.85;3.08;;;18.40;55.10;;;;;;5013084;28;20189;-52
2023/01/05 01:25:38;;;;;;;7.78;3.38;;;18.40;55.00;;;;;;5013084;28;20193;-52
2023/01/05 01:28:05;;;;;;;6.43;3.50;;;18.30;55.10;;;;;;5015841;28;20216;-53
2023/01/05 01:30:32;;;;;;;6.75;3.85;;;18.30;55.00;;;;;;5016782;28;20682;-53
2023/01/05 01:32:59;;;;;;;6.25;4.03;;;18.30;54.90;;;;;;4999329;28;20201;-52
2023/01/05 01:35:26;;;;;;;6.10;3.50;;;18.40;55.20;;;;;;5016809;28;20213;-53
2023/01/05 01:37:55;;;;;;;7.40;3.67;;;18.30;55.20;;;;;;4999169;28;20248;-52
2023/01/05 01:40:22;;;;;;;5.30;3.35;;;18.30;55.10;;;;;;5016720;28;20227;-53
2023/01/05 01:42:49;;;;;;;5.13;2.92;;;18.30;55.20;;;;;;4999145;28;20196;-52
2023/01/05 01:45:19;;;;;;;4.75;2.65;;;18.30;55.10;;;;;;4999063;28;20247;-52
2023/01/05 01:47:48;;;;;;;5.20;3.03;;;18.30;55.10;;;;;;5016538;28;20217;-52
2023/01/05 01:50:17;;;;;;;4.43;3.03;;;18.30;55.20;;;;;;5016511;28;20623;-53
2023/01/05 01:52:44;;;;;;;5.05;3.00;;;18.30;55.10;;;;;;4998908;28;20203;-52
2023/01/05 01:55:13;;;;;;;5.97;3.40;;;18.30;55.00;;;;;;5016423;28;20201;-52
2023/01/05 01:57:40;;;;;;;5.30;3.45;;;18.30;55.30;;;;;;5016428;28;20211;-53
2023/01/05 02:00:09;;;;;;;5.10;3.30;;;18.30;55.40;;;;;;4998748;28;20671;-53
2023/01/05 02:02:46;;;;;;;4.65;2.90;;;18.20;55.10;;;;;;5016510;28;20173;-53
2023/01/05 02:05:15;;;;;;;5.68;3.15;;;18.20;55.10;;;;;;4998703;28;20619;-53
2023/01/05 02:07:44;;;;;;;4.38;3.05;;;18.20;55.00;;;;;;4998580;28;20225;-53
2023/01/05 02:10:14;;;;;;;4.93;2.88;;;18.20;55.20;;;;;;5016126;28;20173;-54
2023/01/05 02:12:51;;;;;;;4.07;2.85;;;18.20;55.40;;;;;;4998454;28;20697;-52
2023/01/05 02:15:22;;;;;;;5.30;3.00;;;18.20;55.90;;;;;;5016219;28;20288;-53
2023/01/05 02:17:57;;;;;;;6.05;3.13;;;18.20;55.10;;;;;;4999231;28;20221;-52
2023/01/05 02:20:46;;;;;;;6.82;2.78;;;18.20;55.20;;;;;;4998436;28;20189;-53
2023/01/05 02:23:24;;;;;;;4.20;3.00;;;18.20;55.30;;;;;;4961203;28;20580;-53
2023/01/05 02:26:10;;;;;;;3.92;2.78;;;18.30;55.40;;;;;;4998264;28;20681;-53
2023/01/05 02:28:45;;;;;;;4.28;2.95;;;18.20;55.10;;;;;;4998237;28;20201;-53
2023/01/05 02:31:15;;;;;;;4.15;2.67;;;18.20;55.20;;;;;;4998193;28;20247;-53
2023/01/05 02:34:06;;;;;;;3.67;2.47;;;18.20;55.30;;;;;;4998194;28;20196;-53
2023/01/05 02:36:36;;;;;;;4.95;3.15;;;18.20;55.20;;;;;;4998024;28;20217;-53
2023/01/05 02:39:06;;;;;;;4.22;2.80;;;18.20;55.20;;;;;;4997096;28;20189;-53
2023/01/05 02:41:36;;;;;;;4.18;2.75;;;18.20;55.00;;;;;;4997950;28;20189;-53
2023/01/05 02:44:04;;;;;;;3.55;2.40;;;18.20;55.00;;;;;;4997998;28;20197;-56
2023/01/05 02:46:32;;;;;;;4.05;2.70;;;18.20;54.90;;;;;;4997794;28;20248;-53
2023/01/05 02:49:00;;;;;;;4.47;2.78;;;18.20;54.70;;;;;;4997895;28;20193;-53
2023/01/05 02:51:29;;;;;;;4.55;2.30;;;18.20;54.80;;;;;;4997958;28;20264;-53
2023/01/05 02:53:58;;;;;;;3.83;2.58;;;18.20;54.70;;;;;;5015701;28;20234;-52
2023/01/05 02:56:27;;;;;;;3.92;2.20;;;18.20;54.70;;;;;;5015334;28;20266;-53
2023/01/05 02:58:56;;;;;;;3.03;2.33;;;18.20;54.80;;;;;;4997819;28;20197;-57
2023/01/05 03:01:24;;;;;;;4.40;2.80;;;18.20;54.70;;;;;;4997769;28;20200;-54
2023/01/05 03:03:54;;;;;;;3.40;2.35;;;18.20;54.80;;;;;;4997807;28;20236;-53
2023/01/05 03:06:24;;;;;;;3.63;2.38;;;18.20;54.80;;;;;;4997592;28;20702;-53
2023/01/05 03:08:52;;;;;;;4.43;2.47;;;18.20;54.80;;;;;;4997600;28;20207;-53
2023/01/05 03:14:24;;;;;;;2.88;2.33;;;18.20;54.80;;;;;;4973936;28;20194;-53
2023/01/05 03:16:51;;;;;;;2.92;2.15;;;18.20;54.80;;;;;;4957701;28;20794;-52
2023/01/05 03:19:39;;;;;;;4.25;2.50;;;18.20;54.60;;;;;;4976494;28;20201;-53
2023/01/05 03:36:24;;;;;;;2.55;1.98;;;18.20;54.60;;;;;;4996956;28;20219;-55
2023/01/05 03:38:51;;;;;;;3.42;2.33;;;18.10;54.40;;;;;;4996975;28;20250;-54
2023/01/05 03:41:18;;;;;;;2.30;1.80;;;18.10;54.40;;;;;;5014626;28;20239;-53
2023/01/05 03:43:46;;;;;;;2.88;1.98;;;18.20;54.50;;;;;;4996847;28;20686;-53
2023/01/05 03:46:14;;;;;;;2.40;2.08;;;18.20;54.40;;;;;;5014097;28;20205;-53
2023/01/05 03:48:43;;;;;;;3.40;2.50;;;18.20;54.50;;;;;;4996752;28;20197;-52
2023/01/05 03:51:10;;;;;;;2.42;2.00;;;18.20;54.60;;;;;;5014097;28;20208;-52
2023/01/05 03:53:42;;;;;;;3.72;2.20;;;18.10;54.30;;;;;;4996612;28;20208;-53
2023/01/05 03:56:09;;;;;;;3.10;2.00;;;18.10;54.30;;;;;;4996583;28;20198;-52
2023/01/05 03:58:36;;;;;;;2.13;1.90;;;18.10;54.30;;;;;;4996585;28;20197;-53
2023/01/05 04:01:03;;;;;;;3.58;2.10;;;18.10;54.20;;;;;;5014096;28;20611;-53
2023/01/05 04:03:30;;;;;;;2.65;2.00;;;18.10;54.20;;;;;;4996582;28;20683;-52
2023/01/05 04:05:57;;;;;;;2.83;2.38;;;18.10;54.20;;;;;;5014059;28;20185;-53
2023/01/05 04:08:27;;;;;;;3.38;2.58;;;18.10;54.40;;;;;;4996367;28;20203;-53
2023/01/05 04:10:56;;;;;;;2.90;2.58;;;18.10;54.30;;;;;;4996244;28;20263;-53
2023/01/05 04:13:24;;;;;;;3.45;2.67;;;18.10;54.30;;;;;;5013862;28;20216;-52
2023/01/05 04:15:54;;;;;;;3.47;2.58;;;18.10;54.40;;;;;;4996474;28;20742;-52
2023/01/05 04:18:21;;;;;;;3.75;3.15;;;18.10;54.50;;;;;;4996336;28;20292;-52
2023/01/05 04:20:48;;;;;;;3.42;2.85;;;18.10;54.50;;;;;;4996148;28;20219;-53
2023/01/05 04:23:15;;;;;;;4.25;2.50;;;18.10;54.40;;;;;;5013717;28;20193;-52
2023/01/05 04:25:42;;;;;;;3.47;2.50;;;18.20;54.40;;;;;;4996104;28;20203;-54
2023/01/05 04:28:19;;;;;;;3.05;2.45;;;18.20;54.90;;;;;;5013548;28;20223;-52
2023/01/05 04:30:49;;;;;;;2.90;2.42;;;18.20;54.40;;;;;;4995785;28;20288;-52
2023/01/05 04:33:16;;;;;;;4.40;2.80;;;18.20;54.40;;;;;;4995982;28;20192;-53
2023/01/05 04:35:44;;;;;;;2.50;2.00;;;18.20;54.40;;;;;;4995974;28;20204;-53
2023/01/05 04:38:11;;;;;;;3.78;2.55;;;18.20;54.90;;;;;;4994568;28;20217;-53
2023/01/05 04:40:38;;;;;;;2.67;2.20;;;18.30;54.30;;;;;;4989688;28;20207;-52
2023/01/05 04:43:06;;;;;;;3.50;2.00;;;18.30;54.50;;;;;;4980045;28;20205;-52
2023/01/05 04:45:35;;;;;;;2.95;2.20;;;18.40;54.10;;;;;;4988481;28;20573;-53
2023/01/05 04:48:02;;;;;;;3.03;2.10;;;18.40;54.10;;;;;;4994593;28;20217;-53
2023/01/05 04:50:29;;;;;;;2.40;1.92;;;18.40;54.00;;;;;;5012126;28;20205;-53
2023/01/05 04:52:58;;;;;;;2.58;1.80;;;18.40;53.90;;;;;;4995078;28;20691;-53
2023/01/05 04:55:28;;;;;;;3.00;1.98;;;18.50;54.10;;;;;;4996174;28;20264;-53
2023/01/05 04:57:55;;;;;;;2.72;2.17;;;18.50;54.00;;;;;;4992481;28;20706;-53
2023/01/05 05:00:23;;;;;;;2.20;1.83;;;18.60;53.70;;;;;;4997318;28;20222;-53
2023/01/05 05:02:52;;;;;;;2.05;1.80;;;18.60;53.50;;;;;;4995182;28;20193;-53
2023/01/05 05:05:19;;;;;;;3.13;1.85;;;18.60;53.50;;;;;;4991736;28;20198;-53
2023/01/05 05:07:50;;;;;;;3.47;1.77;;;18.60;54.30;;;;;;4992319;28;20252;-53
2023/01/05 05:10:18;;;;;;;3.22;2.15;;;18.60;54.40;;;;;;4988909;28;20228;-53
2023/01/05 05:12:47;;;;;;;4.60;2.58;;;18.70;55.10;;;;;;4992720;28;20252;-52
2023/01/05 05:15:14;;;;;;;10.35;6.20;;;18.70;54.60;;;;;;4994561;28;20323;-52
2023/01/05 05:17:46;;;;;;;12.05;5.97;;;18.70;54.90;;;;;;5011851;28;20271;-53
2023/01/05 05:20:16;;;;;;;14.85;7.57;;;18.80;55.00;;;;;;4994098;28;20211;-52
2023/01/05 05:22:44;;;;;;;14.60;6.05;;;18.80;55.00;;;;;;4993379;28;20197;-55
2023/01/05 05:25:14;;;;;;;16.35;8.77;;;18.80;54.90;;;;;;4985644;28;20205;-53
2023/01/05 05:27:45;;;;;;;17.92;7.53;;;18.90;55.50;;;;;;4975970;28;20245;-53
2023/01/05 05:30:13;;;;;;;12.02;5.82;;;18.90;55.40;;;;;;4975974;28;20197;-53
2023/01/05 05:32:40;;;;;;;15.90;5.38;;;18.90;55.10;;;;;;4993281;28;20206;-53
2023/01/05 05:35:08;;;;;;;10.85;4.40;;;19.00;54.80;;;;;;4993535;28;20219;-53
2023/01/05 05:37:36;;;;;;;7.88;3.63;;;19.00;54.30;;;;;;4993151;28;20213;-54
2023/01/05 05:40:03;;;;;;;9.38;3.95;;;19.00;54.60;;;;;;4993609;28;20225;-52
2023/01/05 05:42:30;;;;;;;6.50;3.80;;;19.00;54.50;;;;;;4975834;28;20193;-52
2023/01/05 05:44:57;;;;;;;7.40;3.45;;;19.10;54.80;;;;;;5009237;23;20227;-56
2023/01/05 05:47:24;;;;;;;4.57;2.72;;;19.10;54.80;;;;;;5018003;28;20267;-55
2023/01/05 05:49:52;;;;;;;6.70;2.95;;;19.10;55.00;;;;;;5012975;28;20204;-56
2023/01/05 05:52:19;;;;;;;4.78;2.70;;;19.10;55.40;;;;;;4995365;28;20217;-56
2023/01/05 05:54:47;;;;;;;6.07;2.67;;;19.20;55.00;;;;;;4995385;28;20201;-56
2023/01/05 05:57:16;;;;;;;5.88;2.30;;;19.20;55.00;;;;;;4995343;28;20220;-57
2023/01/05 05:59:43;;;;;;;6.30;2.20;;;19.20;55.00;;;;;;5012766;28;20538;-57
2023/01/05 06:02:10;;;;;;;3.67;2.38;;;19.20;55.00;;;;;;4995323;28;20582;-57
2023/01/05 06:04:37;;;;;;;4.90;2.60;;;19.20;54.90;;;;;;4995244;28;20658;-56
2023/01/05 06:07:04;;;;;;;3.58;2.00;;;19.20;54.80;;;;;;4995262;28;20224;-56
2023/01/05 06:09:31;;;;;;;4.93;1.90;;;19.20;54.50;;;;;;5012773;28;20197;-56
2023/01/05 06:12:00;;;;;;;4.85;1.85;;;19.20;54.90;;;;;;4995107;28;20248;-56
2023/01/05 06:14:28;;;;;;;3.92;1.80;;;19.20;54.70;;;;;;5014500;28;20612;-57
2023/01/05 06:16:54;;;;;;;5.60;1.90;;;19.10;54.70;;;;;;4998579;28;20311;-56
2023/01/05 06:19:22;;;;;;;4.53;2.15;;;19.10;55.00;;;;;;5016182;28;20579;-56
2023/01/05 06:21:49;;;;;;;3.20;1.85;;;19.00;55.00;;;;;;5016415;28;20657;-57
2023/01/05 06:24:16;;;;;;;8.05;2.08;;;19.10;54.90;;;;;;5016492;28;20199;-57
2023/01/05 06:26:44;;;;;;;3.70;1.83;;;19.00;54.90;;;;;;5016314;28;20214;-57
2023/01/05 06:29:12;;;;;;;3.03;1.55;;;19.00;54.60;;;;;;5016113;28;20193;-57
2023/01/05 06:31:39;;;;;;;4.55;1.98;;;19.00;54.60;;;;;;4998356;28;20263;-57
2023/01/05 06:34:06;;;;;;;4.78;2.10;;;19.10;54.70;;;;;;4998795;28;20216;-57
2023/01/05 06:36:33;;;;;;;5.05;1.80;;;19.10;54.60;;;;;;4998327;28;20224;-57
2023/01/05 06:39:00;;;;;;;5.10;1.73;;;19.00;54.50;;;;;;4998308;28;20600;-57
2023/01/05 06:41:27;;;;;;;3.65;1.60;;;19.10;54.40;;;;;;4998305;28;20208;-57
2023/01/05 06:43:54;;;;;;;3.50;1.80;;;19.10;54.30;;;;;;4998666;28;20200;-57
2023/01/05 06:46:23;;;;;;;4.30;1.98;;;19.20;54.30;;;;;;5015739;28;20240;-57
2023/01/05 06:48:51;;;;;;;2.88;1.70;;;19.10;54.10;;;;;;4998091;28;20199;-57
2023/01/05 06:51:18;;;;;;;3.05;1.67;;;19.20;54.10;;;;;;4998034;28;20208;-57
2023/01/05 06:53:45;;;;;;;4.85;2.00;;;19.10;54.00;;;;;;4997893;28;20224;-57
2023/01/05 06:56:13;;;;;;;3.00;1.80;;;19.20;54.00;;;;;;4997957;28;20221;-57
2023/01/05 06:58:40;;;;;;;3.83;1.65;;;19.20;53.90;;;;;;4997879;28;20654;-57
2023/01/05 07:01:07;;;;;;;3.53;1.67;;;19.20;53.90;;;;;;5015477;28;20185;-57
2023/01/05 07:03:36;;;;;;;5.70;1.92;;;19.10;53.90;;;;;;5015404;28;20193;-57
2023/01/05 07:06:04;;;;;;;6.05;1.63;;;19.20;53.90;;;;;;4997680;28;20232;-57
2023/01/05 07:08:31;;;;;;;3.38;1.92;;;19.20;54.00;;;;;;5015276;28;20247;-57
2023/01/05 07:10:58;;;;;;;2.40;1.50;;;19.20;53.90;;;;;;4997681;28;20197;-57
2023/01/05 07:13:25;;;;;;;2.55;1.80;;;19.20;53.90;;;;;;5015103;28;20263;-57
2023/01/05 07:15:53;;;;;;;3.53;1.67;;;19.20;53.90;;;;;;4997878;28;20200;-56
2023/01/05 07:18:20;;;;;;;2.85;1.63;;;19.20;53.90;;;;;;5015121;28;20189;-57
2023/01/05 07:20:48;;;;;;;4.32;1.70;;;19.10;53.80;;;;;;5015084;28;20275;-57
2023/01/05 07:23:16;;;;;;;3.05;1.70;;;19.20;53.90;;;;;;4997450;28;20287;-57
2023/01/05 07:25:42;;;;;;;5.70;1.80;;;19.20;53.80;;;;;;4996892;28;20600;-57
2023/01/05 07:28:10;;;;;;;3.90;1.70;;;19.20;53.70;;;;;;5014944;28;20197;-57
2023/01/05 07:30:37;;;;;;;3.78;1.70;;;19.20;53.70;;;;;;4997311;28;20654;-57
2023/01/05 07:33:04;;;;;;;4.68;1.98;;;19.20;53.70;;;;;;5014815;28;20582;-58
2023/01/05 07:35:31;;;;;;;4.03;1.70;;;19.10;53.60;;;;;;4997318;28;20227;-58
2023/01/05 07:38:00;;;;;;;2.67;1.60;;;19.10;53.60;;;;;;4997113;28;20271;-58
2023/01/05 07:40:27;;;;;;;4.00;1.80;;;19.10;53.70;;;;;;4997155;28;20212;-58
2023/01/05 07:42:54;;;;;;;2.20;1.70;;;19.10;53.60;;;;;;5014653;28;20680;-58
2023/01/05 07:45:22;;;;;;;3.25;1.90;;;19.10;53.40;;;;;;4996991;28;20209;-57
2023/01/05 07:47:49;;;;;;;3.53;2.00;;;19.20;53.50;;;;;;4996982;28;20224;-58
2023/01/05 07:50:16;;;;;;;2.72;1.63;;;19.10;53.40;;;;;;4996932;28;20566;-57
2023/01/05 07:52:43;;;;;;;2.55;1.50;;;19.10;53.30;;;;;;4996840;28;20630;-58
2023/01/05 07:55:12;;;;;;;3.20;1.70;;;19.10;53.40;;;;;;5014523;28;20192;-58
2023/01/05 07:57:39;;;;;;;3.42;2.00;;;19.10;53.30;;;;;;5014394;28;20216;-58
2023/01/05 08:00:08;;;;;;;3.15;1.60;;;19.10;53.30;;;;;;4996984;28;20720;-58
2023/01/05 08:02:40;;;;;;;2.55;1.80;;;19.10;54.00;;;;;;5014581;28;20169;-58
2023/01/05 08:05:08;;;;;;;2.92;1.55;;;19.00;53.60;;;;;;5014391;28;20193;-58
2023/01/05 08:07:35;;;;;;;2.10;1.55;;;19.00;53.80;;;;;;4996573;28;20231;-58
2023/01/05 08:15:33;;;;;;;2.63;1.52;;;19.00;53.70;;;;;;4996592;28;20191;-58
2023/01/05 08:17:59;;;;;;;3.00;1.52;;;19.10;53.80;;;;;;5014060;28;20224;-58
2023/01/05 08:20:27;;;;;;;1.92;1.38;;;19.10;53.70;;;;;;4996506;28;20200;-58
2023/01/05 08:22:54;;;;;;;3.25;1.70;;;19.10;53.60;;;;;;4996439;28;20197;-58
2023/01/05 08:25:21;;;;;;;2.53;1.40;;;19.10;53.70;;;;;;4997102;28;20201;-58
2023/01/05 08:27:49;;;;;;;1.88;1.58;;;19.00;53.70;;;;;;4995915;28;20221;-57
2023/01/05 08:30:16;;;;;;;2.00;1.40;;;19.00;53.50;;;;;;4996412;28;20200;-58
2023/01/05 08:32:43;;;;;;;2.17;1.60;;;19.00;53.50;;;;;;4996226;28;20267;-58
2023/01/05 08:35:10;;;;;;;2.78;1.77;;;19.00;53.50;;;;;;4993830;28;20212;-57
2023/01/05 08:37:38;;;;;;;3.05;1.85;;;19.00;53.50;;;;;;4995364;28;20224;-58
2023/01/05 08:40:06;;;;;;;2.17;1.42;;;19.00;53.30;;;;;;4996190;28;20229;-58
2023/01/05 08:42:34;;;;;;;2.90;1.80;;;19.00;53.40;;;;;;5013702;28;20189;-58
2023/01/05 08:45:02;;;;;;;2.58;1.70;;;19.00;53.30;;;;;;5013624;28;20200;-58
2023/01/05 08:47:29;;;;;;;3.45;1.70;;;19.00;53.30;;;;;;4996051;28;20216;-58
2023/01/05 08:49:56;;;;;;;3.30;2.20;;;19.00;53.60;;;;;;4996292;28;20201;-57
2023/01/05 08:52:23;;;;;;;3.03;2.10;;;19.00;53.10;;;;;;5013614;28;20208;-57
2023/01/05 08:54:50;;;;;;;2.00;1.65;;;19.00;53.30;;;;;;4995869;28;20201;-57
2023/01/05 08:57:17;;;;;;;2.75;1.70;;;19.10;53.10;;;;;;5013495;28;20231;-57
2023/01/05 08:59:44;;;;;;;2.92;1.58;;;19.20;53.10;;;;;;4995934;28;20236;-57
2023/01/05 09:02:12;;;;;;;2.60;1.40;;;19.20;52.90;;;;;;5013952;28;20189;-57
2023/01/05 09:04:39;;;;;;;2.08;1.40;;;19.20;52.90;;;;;;5013708;28;20275;-57
2023/01/05 09:07:06;;;;;;;2.05;1.50;;;19.20;52.70;;;;;;5000262;28;20208;-56
2023/01/05 09:09:33;;;;;;;3.38;1.77;;;19.20;52.70;;;;;;4995773;28;20439;-57
2023/01/05 09:12:00;;;;;;;2.28;1.50;;;19.30;52.70;;;;;;5013338;28;20191;-58
2023/01/05 09:14:28;;;;;;;2.28;1.60;;;19.30;52.60;;;;;;4996100;28;20221;-57
2023/01/05 09:16:55;;;;;;;2.50;1.80;;;19.20;52.50;;;;;;4995660;28;20225;-57
2023/01/05 09:19:24;;;;;;;3.45;1.70;;;19.30;52.50;;;;;;4995804;28;20197;-57
2023/01/05 09:21:52;;;;;;;3.53;1.63;;;19.20;52.50;;;;;;4995697;28;20197;-57
2023/01/05 09:24:19;;;;;;;3.20;1.77;;;19.30;52.50;;;;;;4995794;28;20197;-57
2023/01/05 09:26:46;;;;;;;2.95;1.63;;;19.20;52.30;;;;;;4995583;28;20224;-57
2023/01/05 09:29:13;;;;;;;2.97;1.70;;;19.20;52.30;;;;;;5013171;28;20189;-57
2023/01/05 09:31:40;;;;;;;2.88;1.40;;;19.20;52.30;;;;;;5013176;28;20219;-57
2023/01/05 09:34:08;;;;;;;2.17;1.35;;;19.20;52.30;;;;;;5013460;28;20208;-57
2023/01/05 09:36:37;;;;;;;2.13;1.45;;;19.20;52.30;;;;;;4995422;28;20229;-58
2023/01/05 09:39:05;;;;;;;2.83;1.90;;;19.20;52.40;;;;;;4996498;28;20216;-57
2023/01/05 09:41:33;;;;;;;3.65;1.85;;;19.20;52.40;;;;;;4995595;28;20201;-58
2023/01/05 09:44:02;;;;;;;3.08;1.70;;;19.20;52.20;;;;;;5013019;28;20195;-58
2023/01/05 09:46:30;;;;;;;2.22;1.77;;;19.20;52.20;;;;;;4995476;28;20307;-58
2023/01/05 09:48:59;;;;;;;3.05;1.75;;;19.20;52.00;;;;;;4998628;28;20283;-57
2023/01/05 09:51:26;;;;;;;3.08;1.65;;;19.30;52.00;;;;;;4999066;28;20196;-57
2023/01/05 09:53:54;;;;;;;5.30;1.80;;;19.20;51.90;;;;;;4999081;28;20228;-57
2023/01/05 09:56:26;;;;;;;3.05;1.58;;;19.30;51.90;;;;;;5016657;28;20208;-57
2023/01/05 09:58:55;;;;;;;4.50;1.63;;;19.30;52.10;;;;;;5016790;28;20551;-57
2023/01/05 10:01:22;;;;;;;2.85;1.77;;;19.30;52.00;;;;;;4999748;28;20585;-57
2023/01/05 10:03:54;;;;;;;5.10;1.77;;;19.30;51.80;;;;;;4999846;28;20629;-57
2023/01/05 10:06:21;;;;;;;4.18;1.88;;;19.30;51.70;;;;;;4998904;28;20304;-57
2023/01/05 10:08:49;;;;;;;6.13;1.60;;;19.30;51.60;;;;;;4998784;28;20680;-57
2023/01/05 10:14:06;;;;;;;4.30;2.10;;;19.30;51.60;;;;;;4998792;28;20212;-57
2023/01/05 10:16:34;;;;;;;4.03;1.67;;;19.30;51.40;;;;;;5016228;28;20216;-56
2023/01/05 10:19:01;;;;;;;3.70;1.60;;;19.30;51.40;;;;;;4998773;28;20596;-57
2023/01/05 10:21:34;;;;;;;3.85;1.80;;;19.20;51.50;;;;;;4998625;28;20211;-57
2023/01/05 10:24:24;;;;;;;4.32;1.83;;;19.30;52.70;;;;;;4999042;28;20201;-57
2023/01/05 10:26:56;;;;;;;4.03;1.70;;;19.30;52.70;;;;;;4993976;28;20225;-58
2023/01/05 10:29:24;;;;;;;2.33;1.60;;;19.30;53.30;;;;;;5016240;28;20534;-57
2023/01/05 10:31:55;;;;;;;2.53;1.60;;;19.30;54.00;;;;;;4998421;28;20207;-57
2023/01/05 10:34:23;;;;;;;5.32;1.90;;;19.40;53.50;;;;;;4998085;28;20315;-57
2023/01/05 10:36:58;;;;;;;6.47;1.98;;;19.40;53.50;;;;;;4998184;28;20228;-57
2023/01/05 10:39:28;;;;;;;3.88;2.00;;;19.40;54.10;;;;;;4998322;28;20197;-57
2023/01/05 10:42:00;;;;;;;3.40;1.80;;;19.40;54.20;;;;;;5016109;28;20530;-58
2023/01/05 10:44:51;;;;;;;4.72;1.55;;;19.50;54.20;;;;;;4998019;28;20236;-57
2023/01/05 10:47:18;;;;;;;4.43;1.70;;;19.50;53.30;;;;;;4998384;28;20219;-58
2023/01/05 10:49:46;;;;;;;2.72;1.67;;;19.50;53.40;;;;;;5015722;28;20197;-58
2023/01/05 10:52:14;;;;;;;5.53;2.03;;;19.50;53.40;;;;;;4997988;28;20680;-56
2023/01/05 10:54:43;;;;;;;6.95;2.08;;;19.50;52.90;;;;;;4998250;28;20216;-55
2023/01/05 10:57:37;;;;;;;4.20;1.92;;;19.60;52.80;;;;;;4997957;28;20303;-56
2023/01/05 11:00:09;;;;;;;3.75;1.90;;;19.60;52.90;;;;;;4996864;28;20296;-56
2023/01/05 11:02:37;;;;;;;4.85;1.83;;;19.60;53.10;;;;;;4998264;28;20267;-55
2023/01/05 11:05:05;;;;;;;5.07;1.90;;;19.60;52.90;;;;;;5015528;28;20188;-55
2023/01/05 11:07:32;;;;;;;5.15;1.73;;;19.60;52.90;;;;;;5015327;28;20212;-55
2023/01/05 11:09:59;;;;;;;3.60;1.92;;;19.60;52.60;;;;;;5013149;28;20224;-55
2023/01/05 11:12:26;;;;;;;3.70;1.60;;;19.50;52.60;;;;;;4997709;28;20193;-55
2023/01/05 11:14:56;;;;;;;3.90;2.17;;;19.60;52.70;;;;;;4997505;28;20217;-54
2023/01/05 11:17:24;;;;;;;5.10;2.08;;;19.60;52.40;;;;;;4997514;28;20228;-54
2023/01/05 11:19:52;;;;;;;5.35;2.17;;;19.60;52.60;;;;;;5015054;28;20199;-54
2023/01/05 11:22:29;;;;;;;2.78;1.67;;;19.60;52.30;;;;;;5015100;28;20582;-54
2023/01/05 11:25:13;;;;;;;3.22;1.58;;;19.60;52.70;;;;;;5015056;28;20189;-54
2023/01/05 11:27:41;;;;;;;2.63;1.83;;;19.60;52.20;;;;;;4997475;28;20702;-54
2023/01/05 11:30:26;;;;;;;4.55;1.55;;;19.50;52.20;;;;;;4997510;28;20251;-54
2023/01/05 11:32:53;;;;;;;1.92;1.63;;;19.60;52.20;;;;;;4997127;28;20201;-54
2023/01/05 11:35:27;;;;;;;3.90;1.60;;;19.50;52.10;;;;;;4998276;28;20205;-54
2023/01/05 11:37:54;;;;;;;3.25;1.77;;;19.50;52.00;;;;;;4997194;28;20215;-54
2023/01/05 11:40:21;;;;;;;3.42;1.48;;;19.50;52.00;;;;;;5015054;28;20262;-54
2023/01/05 11:42:48;;;;;;;3.58;1.73;;;19.50;52.00;;;;;;5014421;28;20200;-54
2023/01/05 11:45:21;;;;;;;2.78;1.60;;;19.50;51.80;;;;;;4997019;28;20228;-54
2023/01/05 11:47:49;;;;;;;3.78;1.70;;;19.50;51.80;;;;;;5014505;28;20205;-54
2023/01/05 11:50:20;;;;;;;3.35;1.80;;;19.50;51.80;;;;;;4997204;28;20568;-54
2023/01/05 11:52:48;;;;;;;2.65;1.48;;;19.50;51.80;;;;;;5014504;28;20185;-54
2023/01/05 11:55:30;;;;;;;4.47;1.60;;;19.50;51.90;;;;;;4996842;28;20263;-54
2023/01/05 11:58:12;;;;;;;3.30;1.60;;;19.50;51.70;;;;;;5014449;28;20213;-54
2023/01/05 12:00:50;;;;;;;3.20;1.70;;;19.50;51.70;;;;;;5014781;28;20177;-54
2023/01/05 12:03:25;;;;;;;2.83;1.70;;;19.50;51.60;;;;;;5014425;28;20165;-54
2023/01/05 12:05:53;;;;;;;5.68;1.60;;;19.50;51.50;;;;;;5014291;28;20556;-54
2023/01/05 12:08:23;;;;;;;3.50;1.67;;;19.50;51.60;;;;;;5014303;28;20192;-54
2023/01/05 12:11:00;;;;;;;3.83;1.63;;;19.50;51.80;;;;;;5014033;28;20200;-54
2023/01/05 12:13:52;;;;;;;2.85;1.70;;;19.50;51.60;;;;;;5014441;28;20275;-54
2023/01/05 12:16:34;;;;;;;2.58;1.67;;;19.50;51.40;;;;;;4993803;28;20221;-54
2023/01/05 12:19:38;;;;;;;3.75;1.50;;;19.50;51.50;;;;;;5014429;28;20177;-55
2023/01/05 12:22:36;;;;;;;4.00;1.77;;;19.50;51.50;;;;;;5014422;28;20184;-55
2023/01/05 12:25:09;;;;;;;3.50;1.65;;;19.50;51.40;;;;;;5008738;28;20205;-54
2023/01/05 12:27:46;;;;;;;4.18;1.75;;;19.50;51.30;;;;;;5013937;28;20245;-55
2023/01/05 12:30:22;;;;;;;4.35;1.75;;;19.50;51.20;;;;;;5013922;28;20180;-55
2023/01/05 12:33:12;;;;;;;4.07;1.73;;;19.60;51.30;;;;;;4996202;28;20198;-55
2023/01/05 12:36:01;;;;;;;3.83;1.70;;;19.60;51.10;;;;;;5012022;28;20541;-55
2023/01/05 12:38:36;;;;;;;2.63;1.70;;;19.60;51.10;;;;;;5014032;28;20185;-55
2023/01/05 12:41:20;;;;;;;3.85;1.80;;;19.60;51.60;;;;;;4996246;28;20613;-56
2023/01/05 12:43:52;;;;;;;2.75;1.30;;;19.60;51.70;;;;;;4996023;28;20220;-56
2023/01/05 12:46:26;;;;;;;3.35;1.70;;;19.70;51.80;;;;;;5029068;23;20193;-53
2023/01/05 12:48:55;;;;;;;4.65;1.60;;;19.70;51.40;;;;;;5033193;28;20180;-53
2023/01/05 12:51:24;;;;;;;3.00;1.50;;;19.70;51.40;;;;;;5033130;28;20599;-53
2023/01/05 12:53:54;;;;;;;4.78;1.70;;;19.70;51.10;;;;;;5033113;28;20204;-53
2023/01/05 12:56:25;;;;;;;3.17;1.85;;;19.70;51.10;;;;;;5029412;28;20564;-54
2023/01/05 12:59:02;;;;;;;3.65;1.63;;;19.70;51.00;;;;;;5013663;28;20189;-53
2023/01/05 13:01:30;;;;;;;2.83;1.50;;;19.70;51.40;;;;;;5013323;28;20669;-53
2023/01/05 13:04:00;;;;;;;3.67;1.60;;;19.60;50.90;;;;;;5013297;28;20618;-54
2023/01/05 13:06:27;;;;;;;2.83;1.83;;;19.70;50.90;;;;;;5013533;28;20227;-53
2023/01/05 13:08:56;;;;;;;3.20;1.48;;;19.70;50.70;;;;;;5013234;28;20196;-53
2023/01/05 13:11:25;;;;;;;2.80;1.48;;;19.80;51.20;;;;;;5013265;28;20734;-53
2023/01/05 13:13:53;;;;;;;3.10;1.50;;;19.80;50.70;;;;;;5013333;28;20216;-53
2023/01/05 13:16:22;;;;;;;3.38;1.60;;;19.80;50.80;;;;;;4995503;28;20306;-53
2023/01/05 13:18:52;;;;;;;3.13;1.65;;;19.80;50.80;;;;;;5013209;28;20204;-54
2023/01/05 13:21:21;;;;;;;5.68;1.65;;;19.80;50.60;;;;;;5013390;28;20554;-53
2023/01/05 13:23:50;;;;;;;3.35;1.58;;;19.80;50.70;;;;;;5016051;28;20189;-53
2023/01/05 13:26:18;;;;;;;3.13;1.70;;;19.80;50.70;;;;;;5017178;28;20217;-53
2023/01/05 13:28:46;;;;;;;3.40;1.80;;;19.80;50.10;;;;;;5017174;28;20195;-53
2023/01/05 13:31:47;;;;;;;4.82;1.73;;;19.80;50.40;;;;;;4999420;28;20674;-54
2023/01/05 13:34:26;;;;;;;3.03;1.75;;;19.80;50.10;;;;;;5011223;28;20228;-53
2023/01/05 13:37:03;;;;;;;3.15;1.77;;;19.80;50.20;;;;;;4999441;28;20225;-53